sensor_id;sensor_type;location;lat;lon;timestamp;pressure;altitude;pressure_sealevel;temperature;humidity
48216;BME280;34005;48.844;10.098;2023-03-26T00:01:38;96185.25;;;9.23;68.95
48216;BME280;34005;48.844;10.098;2023-03-26T00:04:07;96186.28;;;9.29;69.36
48216;BME280;34005;48.844;10.098;2023-03-26T00:06:36;96189.97;;;9.35;69.94
48216;BME280;34005;48.844;10.098;2023-03-26T00:09:06;96187.81;;;9.38;69.94
48216;BME280;34005;48.844;10.098;2023-03-26T00:11:34;96185.00;;;9.40;70.38
48216;BME280;34005;48.844;10.098;2023-03-26T00:14:02;96177.41;;;9.38;68.87
48216;BME280;34005;48.844;10.098;2023-03-26T00:16:32;96172.94;;;9.32;69.31
48216;BME280;34005;48.844;10.098;2023-03-26T00:19:01;96167.34;;;9.35;70.15
48216;BME280;34005;48.844;10.098;2023-03-26T00:21:30;96162.13;;;9.35;68.71
48216;BME280;34005;48.844;10.098;2023-03-26T00:23:59;96167.34;;;9.35;70.30
48216;BME280;34005;48.844;10.098;2023-03-26T00:26:30;96160.53;;;9.34;69.72
48216;BME280;34005;48.844;10.098;2023-03-26T00:28:59;96167.09;;;9.30;68.69
48216;BME280;34005;48.844;10.098;2023-03-26T00:31:29;96159.41;;;9.22;69.03
48216;BME280;34005;48.844;10.098;2023-03-26T00:33:58;96161.19;;;9.21;69.08
48216;BME280;34005;48.844;10.098;2023-03-26T00:36:28;96166.94;;;9.17;68.31
48216;BME280;34005;48.844;10.098;2023-03-26T00:38:56;96163.56;;;9.16;70.17
48216;BME280;34005;48.844;10.098;2023-03-26T00:41:24;96155.53;;;9.18;69.55
48216;BME280;34005;48.844;10.098;2023-03-26T00:43:57;96158.97;;;9.18;68.40
48216;BME280;34005;48.844;10.098;2023-03-26T00:46:26;96158.78;;;9.20;69.66
48216;BME280;34005;48.844;10.098;2023-03-26T00:48:54;96165.41;;;9.22;71.06
48216;BME280;34005;48.844;10.098;2023-03-26T00:51:27;96158.22;;;9.24;71.78
48216;BME280;34005;48.844;10.098;2023-03-26T00:53:55;96168.91;;;9.30;71.45
48216;BME280;34005;48.844;10.098;2023-03-26T00:56:23;96162.88;;;9.29;72.39
48216;BME280;34005;48.844;10.098;2023-03-26T00:58:51;96173.47;;;9.27;71.38
48216;BME280;34005;48.844;10.098;2023-03-26T01:01:21;96168.06;;;9.29;71.57
48216;BME280;34005;48.844;10.098;2023-03-26T01:03:54;96164.66;;;9.28;71.74
48216;BME280;34005;48.844;10.098;2023-03-26T01:06:38;96163.69;;;9.30;72.38
48216;BME280;34005;48.844;10.098;2023-03-26T01:09:13;96159.63;;;9.27;70.09
48216;BME280;34005;48.844;10.098;2023-03-26T01:11:41;96147.63;;;9.26;71.56
48216;BME280;34005;48.844;10.098;2023-03-26T01:14:11;96142.44;;;9.26;72.45
48216;BME280;34005;48.844;10.098;2023-03-26T01:16:40;96142.03;;;9.29;71.95
48216;BME280;34005;48.844;10.098;2023-03-26T01:19:14;96138.09;;;9.33;72.56
48216;BME280;34005;48.844;10.098;2023-03-26T01:21:47;96132.47;;;9.30;69.47
48216;BME280;34005;48.844;10.098;2023-03-26T01:24:16;96130.03;;;9.28;70.42
48216;BME280;34005;48.844;10.098;2023-03-26T01:26:54;96128.22;;;9.28;73.04
48216;BME280;34005;48.844;10.098;2023-03-26T01:29:29;96124.84;;;9.28;70.47
48216;BME280;34005;48.844;10.098;2023-03-26T01:32:05;96119.63;;;9.28;71.68
48216;BME280;34005;48.844;10.098;2023-03-26T01:34:44;96119.25;;;9.31;72.56
48216;BME280;34005;48.844;10.098;2023-03-26T01:37:20;96106.84;;;9.33;69.30
48216;BME280;34005;48.844;10.098;2023-03-26T01:39:54;96108.66;;;9.33;71.12
48216;BME280;34005;48.844;10.098;2023-03-26T01:42:32;96105.59;;;9.29;70.80
48216;BME280;34005;48.844;10.098;2023-03-26T01:45:08;96104.81;;;9.28;68.89
48216;BME280;34005;48.844;10.098;2023-03-26T01:47:38;96100.34;;;9.22;69.40
48216;BME280;34005;48.844;10.098;2023-03-26T01:50:08;96102.75;;;9.24;69.98
48216;BME280;34005;48.844;10.098;2023-03-26T01:52:36;96096.59;;;9.25;69.84
48216;BME280;34005;48.844;10.098;2023-03-26T01:55:06;96097.31;;;9.19;67.49
48216;BME280;34005;48.844;10.098;2023-03-26T01:57:47;96089.88;;;9.16;68.25
48216;BME280;34005;48.844;10.098;2023-03-26T02:00:24;96087.09;;;9.17;69.08
48216;BME280;34005;48.844;10.098;2023-03-26T02:03:00;96075.50;;;9.20;71.47
48216;BME280;34005;48.844;10.098;2023-03-26T02:05:33;96079.34;;;9.24;70.87
48216;BME280;34005;48.844;10.098;2023-03-26T02:08:08;96071.53;;;9.24;71.00
48216;BME280;34005;48.844;10.098;2023-03-26T02:10:40;96071.28;;;9.19;70.02
48216;BME280;34005;48.844;10.098;2023-03-26T02:13:09;96065.66;;;9.15;69.87
48216;BME280;34005;48.844;10.098;2023-03-26T02:15:38;96062.88;;;9.17;69.77
48216;BME280;34005;48.844;10.098;2023-03-26T02:18:06;96059.09;;;9.19;70.47
48216;BME280;34005;48.844;10.098;2023-03-26T02:20:36;96043.28;;;9.21;70.71
48216;BME280;34005;48.844;10.098;2023-03-26T02:23:03;96045.69;;;9.22;69.80
48216;BME280;34005;48.844;10.098;2023-03-26T02:25:32;96041.50;;;9.21;67.61
48216;BME280;34005;48.844;10.098;2023-03-26T02:28:02;96044.66;;;9.17;67.56
48216;BME280;34005;48.844;10.098;2023-03-26T02:30:31;96048.78;;;9.11;66.50
48216;BME280;34005;48.844;10.098;2023-03-26T02:32:58;96042.28;;;9.00;66.18
48216;BME280;34005;48.844;10.098;2023-03-26T02:35:26;96041.41;;;8.93;67.10
48216;BME280;34005;48.844;10.098;2023-03-26T02:37:54;96036.38;;;8.92;66.76
48216;BME280;34005;48.844;10.098;2023-03-26T02:40:22;96037.94;;;8.86;66.47
48216;BME280;34005;48.844;10.098;2023-03-26T02:42:50;96034.09;;;8.82;66.40
48216;BME280;34005;48.844;10.098;2023-03-26T02:45:19;96030.09;;;8.79;66.31
48216;BME280;34005;48.844;10.098;2023-03-26T02:47:46;96019.84;;;8.78;65.90
48216;BME280;34005;48.844;10.098;2023-03-26T02:50:16;96025.16;;;8.70;66.19
48216;BME280;34005;48.844;10.098;2023-03-26T02:52:44;96009.31;;;8.64;66.44
48216;BME280;34005;48.844;10.098;2023-03-26T02:55:14;96013.91;;;8.62;66.29
48216;BME280;34005;48.844;10.098;2023-03-26T02:57:41;96009.06;;;8.59;66.35
48216;BME280;34005;48.844;10.098;2023-03-26T03:00:10;96016.44;;;8.56;66.21
48216;BME280;34005;48.844;10.098;2023-03-26T03:02:44;96009.53;;;8.48;66.07
48216;BME280;34005;48.844;10.098;2023-03-26T03:05:13;96005.41;;;8.39;66.53
48216;BME280;34005;48.844;10.098;2023-03-26T03:07:41;96003.81;;;8.38;66.79
48216;BME280;34005;48.844;10.098;2023-03-26T03:10:09;96007.03;;;8.40;66.95
48216;BME280;34005;48.844;10.098;2023-03-26T03:12:39;96000.56;;;8.36;66.72
48216;BME280;34005;48.844;10.098;2023-03-26T03:15:08;95990.47;;;8.26;66.66
48216;BME280;34005;48.844;10.098;2023-03-26T03:17:36;95988.84;;;8.25;67.83
48216;BME280;34005;48.844;10.098;2023-03-26T03:20:06;95989.19;;;8.22;66.77
48216;BME280;34005;48.844;10.098;2023-03-26T03:22:34;95993.53;;;8.15;66.89
48216;BME280;34005;48.844;10.098;2023-03-26T03:25:03;95993.28;;;8.10;67.08
48216;BME280;34005;48.844;10.098;2023-03-26T03:27:30;95982.59;;;8.04;66.87
48216;BME280;34005;48.844;10.098;2023-03-26T03:29:58;95969.81;;;8.03;66.94
48216;BME280;34005;48.844;10.098;2023-03-26T03:32:25;95974.56;;;7.99;66.42
48216;BME280;34005;48.844;10.098;2023-03-26T03:34:53;95978.50;;;7.95;66.33
48216;BME280;34005;48.844;10.098;2023-03-26T03:37:23;95979.56;;;7.86;65.94
48216;BME280;34005;48.844;10.098;2023-03-26T03:39:51;95975.56;;;7.83;66.82
48216;BME280;34005;48.844;10.098;2023-03-26T03:42:19;95980.28;;;7.80;66.16
48216;BME280;34005;48.844;10.098;2023-03-26T03:44:46;95978.78;;;7.71;66.43
48216;BME280;34005;48.844;10.098;2023-03-26T03:47:14;95976.44;;;7.61;66.76
48216;BME280;34005;48.844;10.098;2023-03-26T03:49:41;95970.63;;;7.59;67.24
48216;BME280;34005;48.844;10.098;2023-03-26T03:52:09;95974.81;;;7.60;67.19
48216;BME280;34005;48.844;10.098;2023-03-26T03:54:38;95969.81;;;7.58;67.42
48216;BME280;34005;48.844;10.098;2023-03-26T03:57:05;95967.66;;;7.62;67.76
48216;BME280;34005;48.844;10.098;2023-03-26T03:59:33;95965.34;;;7.67;67.22
48216;BME280;34005;48.844;10.098;2023-03-26T04:02:00;95962.19;;;7.72;67.60
48216;BME280;34005;48.844;10.098;2023-03-26T04:04:28;95950.84;;;7.73;67.37
48216;BME280;34005;48.844;10.098;2023-03-26T04:06:56;95945.66;;;7.73;67.13
48216;BME280;34005;48.844;10.098;2023-03-26T04:09:23;95946.03;;;7.70;67.22
48216;BME280;34005;48.844;10.098;2023-03-26T04:11:52;95944.75;;;7.66;67.17
48216;BME280;34005;48.844;10.098;2023-03-26T04:14:20;95950.13;;;7.64;67.46
48216;BME280;34005;48.844;10.098;2023-03-26T04:16:47;95943.78;;;7.67;67.67
48216;BME280;34005;48.844;10.098;2023-03-26T04:19:15;95939.56;;;7.66;67.62
48216;BME280;34005;48.844;10.098;2023-03-26T04:21:42;95936.16;;;7.65;67.54
48216;BME280;34005;48.844;10.098;2023-03-26T04:24:11;95926.75;;;7.64;67.63
48216;BME280;34005;48.844;10.098;2023-03-26T04:26:38;95920.16;;;7.61;67.58
48216;BME280;34005;48.844;10.098;2023-03-26T04:29:09;95918.09;;;7.57;67.69
48216;BME280;34005;48.844;10.098;2023-03-26T04:31:42;95914.41;;;7.51;67.63
48216;BME280;34005;48.844;10.098;2023-03-26T04:34:17;95912.34;;;7.47;68.58
48216;BME280;34005;48.844;10.098;2023-03-26T04:36:49;95902.16;;;7.45;68.29
48216;BME280;34005;48.844;10.098;2023-03-26T04:39:20;95908.59;;;7.49;68.21
48216;BME280;34005;48.844;10.098;2023-03-26T04:41:48;95902.88;;;7.54;68.11
48216;BME280;34005;48.844;10.098;2023-03-26T04:44:17;95897.75;;;7.60;69.46
48216;BME280;34005;48.844;10.098;2023-03-26T04:46:47;95887.84;;;7.64;68.30
48216;BME280;34005;48.844;10.098;2023-03-26T04:49:15;95885.78;;;7.59;68.09
48216;BME280;34005;48.844;10.098;2023-03-26T04:51:43;95880.59;;;7.59;68.34
48216;BME280;34005;48.844;10.098;2023-03-26T04:54:12;95878.78;;;7.60;68.23
48216;BME280;34005;48.844;10.098;2023-03-26T04:56:44;95866.34;;;7.55;68.24
48216;BME280;34005;48.844;10.098;2023-03-26T04:59:17;95850.34;;;7.52;67.98
48216;BME280;34005;48.844;10.098;2023-03-26T05:01:45;95841.66;;;7.45;67.94
48216;BME280;34005;48.844;10.098;2023-03-26T05:04:13;95836.41;;;7.38;68.20
48216;BME280;34005;48.844;10.098;2023-03-26T05:06:40;95841.13;;;7.34;68.24
48216;BME280;34005;48.844;10.098;2023-03-26T05:09:08;95837.19;;;7.38;69.52
48216;BME280;34005;48.844;10.098;2023-03-26T05:11:36;95830.50;;;7.44;68.70
48216;BME280;34005;48.844;10.098;2023-03-26T05:14:04;95837.47;;;7.43;68.67
48216;BME280;34005;48.844;10.098;2023-03-26T05:16:33;95835.22;;;7.40;68.59
48216;BME280;34005;48.844;10.098;2023-03-26T05:19:01;95818.06;;;7.39;68.86
48216;BME280;34005;48.844;10.098;2023-03-26T05:21:28;95811.25;;;7.38;68.31
48216;BME280;34005;48.844;10.098;2023-03-26T05:23:56;95809.19;;;7.34;68.48
48216;BME280;34005;48.844;10.098;2023-03-26T05:26:24;95808.75;;;7.30;69.05
48216;BME280;34005;48.844;10.098;2023-03-26T05:28:51;95818.22;;;7.38;69.43
48216;BME280;34005;48.844;10.098;2023-03-26T05:31:19;95811.16;;;7.47;69.88
48216;BME280;34005;48.844;10.098;2023-03-26T05:33:49;95821.78;;;7.52;69.16
48216;BME280;34005;48.844;10.098;2023-03-26T05:36:17;95828.59;;;7.53;69.71
48216;BME280;34005;48.844;10.098;2023-03-26T05:38:44;95821.78;;;7.52;69.06
48216;BME280;34005;48.844;10.098;2023-03-26T05:41:15;95822.78;;;7.51;69.35
48216;BME280;34005;48.844;10.098;2023-03-26T05:43:43;95817.78;;;7.49;68.84
48216;BME280;34005;48.844;10.098;2023-03-26T05:46:12;95819.41;;;7.50;69.59
48216;BME280;34005;48.844;10.098;2023-03-26T05:48:40;95812.41;;;7.51;68.69
48216;BME280;34005;48.844;10.098;2023-03-26T05:51:09;95813.38;;;7.50;69.01
48216;BME280;34005;48.844;10.098;2023-03-26T05:53:37;95817.34;;;7.46;68.36
48216;BME280;34005;48.844;10.098;2023-03-26T05:56:05;95812.41;;;7.36;67.91
48216;BME280;34005;48.844;10.098;2023-03-26T05:58:34;95798.03;;;7.18;68.30
48216;BME280;34005;48.844;10.098;2023-03-26T06:01:04;95786.41;;;6.99;68.76
48216;BME280;34005;48.844;10.098;2023-03-26T06:03:35;95789.00;;;6.85;69.21
48216;BME280;34005;48.844;10.098;2023-03-26T06:06:06;95796.06;;;6.76;69.57
48216;BME280;34005;48.844;10.098;2023-03-26T06:08:35;95781.22;;;6.70;69.79
48216;BME280;34005;48.844;10.098;2023-03-26T06:11:05;95785.94;;;6.66;70.46
48216;BME280;34005;48.844;10.098;2023-03-26T06:13:33;95779.25;;;6.72;70.61
48216;BME280;34005;48.844;10.098;2023-03-26T06:16:01;95776.94;;;6.77;70.58
48216;BME280;34005;48.844;10.098;2023-03-26T06:18:29;95782.22;;;6.84;70.40
48216;BME280;34005;48.844;10.098;2023-03-26T06:20:57;95783.28;;;6.89;70.24
48216;BME280;34005;48.844;10.098;2023-03-26T06:23:25;95777.41;;;6.95;71.18
48216;BME280;34005;48.844;10.098;2023-03-26T06:25:54;95773.72;;;7.05;70.85
48216;BME280;34005;48.844;10.098;2023-03-26T06:28:22;95767.81;;;7.11;70.32
48216;BME280;34005;48.844;10.098;2023-03-26T06:30:50;95770.28;;;7.19;70.39
48216;BME280;34005;48.844;10.098;2023-03-26T06:33:18;95761.00;;;7.25;69.91
48216;BME280;34005;48.844;10.098;2023-03-26T06:35:49;95752.66;;;7.29;70.14
48216;BME280;34005;48.844;10.098;2023-03-26T06:38:17;95745.75;;;7.36;69.96
48216;BME280;34005;48.844;10.098;2023-03-26T06:40:44;95737.63;;;7.39;69.58
48216;BME280;34005;48.844;10.098;2023-03-26T06:43:13;95738.59;;;7.38;69.43
48216;BME280;34005;48.844;10.098;2023-03-26T06:45:41;95733.41;;;7.38;69.75
48216;BME280;34005;48.844;10.098;2023-03-26T06:48:08;95730.47;;;7.41;69.69
48216;BME280;34005;48.844;10.098;2023-03-26T06:50:36;95733.13;;;7.48;69.71
48216;BME280;34005;48.844;10.098;2023-03-26T06:53:03;95734.00;;;7.55;70.63
48216;BME280;34005;48.844;10.098;2023-03-26T06:55:31;95731.28;;;7.63;71.79
48216;BME280;34005;48.844;10.098;2023-03-26T06:57:58;95738.75;;;7.73;72.04
48216;BME280;34005;48.844;10.098;2023-03-26T07:00:28;95734.81;;;7.77;71.18
48216;BME280;34005;48.844;10.098;2023-03-26T07:02:55;95723.81;;;7.75;70.93
48216;BME280;34005;48.844;10.098;2023-03-26T07:05:24;95728.66;;;7.78;71.56
48216;BME280;34005;48.844;10.098;2023-03-26T07:07:51;95721.91;;;7.84;72.04
48216;BME280;34005;48.844;10.098;2023-03-26T07:10:22;95708.97;;;7.91;73.08
48216;BME280;34005;48.844;10.098;2023-03-26T07:12:51;95712.81;;;7.95;71.63
48216;BME280;34005;48.844;10.098;2023-03-26T07:15:19;95707.22;;;7.98;71.45
48216;BME280;34005;48.844;10.098;2023-03-26T07:17:49;95703.09;;;8.03;72.48
48216;BME280;34005;48.844;10.098;2023-03-26T07:20:18;95695.13;;;8.05;71.11
48216;BME280;34005;48.844;10.098;2023-03-26T07:22:46;95684.84;;;7.97;70.36
48216;BME280;34005;48.844;10.098;2023-03-26T07:25:16;95676.78;;;7.85;70.72
48216;BME280;34005;48.844;10.098;2023-03-26T07:27:51;95690.44;;;7.72;70.78
48216;BME280;34005;48.844;10.098;2023-03-26T07:30:26;95689.16;;;7.61;71.34
48216;BME280;34005;48.844;10.098;2023-03-26T07:33:00;95682.88;;;7.56;71.83
48216;BME280;34005;48.844;10.098;2023-03-26T07:35:35;95667.69;;;7.53;71.88
48216;BME280;34005;48.844;10.098;2023-03-26T07:38:20;95667.09;;;7.51;71.94
48216;BME280;34005;48.844;10.098;2023-03-26T07:40:57;95656.09;;;7.49;71.39
48216;BME280;34005;48.844;10.098;2023-03-26T07:43:48;95656.47;;;7.46;71.55
48216;BME280;34005;48.844;10.098;2023-03-26T07:46:20;95652.38;;;7.36;71.21
48216;BME280;34005;48.844;10.098;2023-03-26T07:48:53;95630.75;;;7.29;71.62
48216;BME280;34005;48.844;10.098;2023-03-26T07:51:24;95625.31;;;7.24;71.72
48216;BME280;34005;48.844;10.098;2023-03-26T07:53:52;95617.88;;;7.21;71.85
48216;BME280;34005;48.844;10.098;2023-03-26T07:56:25;95607.16;;;7.24;72.82
48216;BME280;34005;48.844;10.098;2023-03-26T07:59:08;95605.81;;;7.28;74.95
48216;BME280;34005;48.844;10.098;2023-03-26T08:01:48;95595.28;;;7.36;75.44
48216;BME280;34005;48.844;10.098;2023-03-26T08:04:52;95597.38;;;7.48;75.26
48216;BME280;34005;48.844;10.098;2023-03-26T08:07:29;95590.25;;;7.56;73.91
48216;BME280;34005;48.844;10.098;2023-03-26T08:10:11;95585.13;;;7.63;73.68
48216;BME280;34005;48.844;10.098;2023-03-26T08:12:49;95585.38;;;7.68;73.01
48216;BME280;34005;48.844;10.098;2023-03-26T08:15:24;95586.22;;;7.75;73.55
48216;BME280;34005;48.844;10.098;2023-03-26T08:18:00;95578.66;;;7.80;73.16
48216;BME280;34005;48.844;10.098;2023-03-26T08:20:36;95584.09;;;7.86;72.58
48216;BME280;34005;48.844;10.098;2023-03-26T08:23:14;95580.75;;;7.92;73.61
48216;BME280;34005;48.844;10.098;2023-03-26T08:25:50;95583.56;;;7.97;71.99
48216;BME280;34005;48.844;10.098;2023-03-26T08:28:33;95575.78;;;7.97;72.31
48216;BME280;34005;48.844;10.098;2023-03-26T08:31:04;95579.97;;;7.98;73.21
48216;BME280;34005;48.844;10.098;2023-03-26T08:33:32;95586.41;;;8.02;72.97
48216;BME280;34005;48.844;10.098;2023-03-26T08:36:06;95583.44;;;8.05;72.41
48216;BME280;34005;48.844;10.098;2023-03-26T08:38:34;95587.25;;;8.09;72.78
48216;BME280;34005;48.844;10.098;2023-03-26T08:41:29;95581.09;;;8.17;74.27
48216;BME280;34005;48.844;10.098;2023-03-26T08:44:18;95578.31;;;8.18;73.22
48216;BME280;34005;48.844;10.098;2023-03-26T08:50:35;95572.06;;;8.13;73.15
48216;BME280;34005;48.844;10.098;2023-03-26T08:53:32;95576.66;;;8.11;72.50
48216;BME280;34005;48.844;10.098;2023-03-26T08:56:07;95570.88;;;8.15;73.98
48216;BME280;34005;48.844;10.098;2023-03-26T08:58:54;95577.13;;;8.21;74.66
48216;BME280;34005;48.844;10.098;2023-03-26T09:01:46;95571.34;;;8.25;74.75
48216;BME280;34005;48.844;10.098;2023-03-26T09:04:37;95561.16;;;8.31;75.12
48216;BME280;34005;48.844;10.098;2023-03-26T09:17:02;95540.78;;;8.28;75.35
48216;BME280;34005;48.844;10.098;2023-03-26T09:23:00;95531.31;;;8.13;74.09
48216;BME280;34005;48.844;10.098;2023-03-26T09:29:04;95521.47;;;8.02;75.16
48216;BME280;34005;48.844;10.098;2023-03-26T09:32:07;95517.91;;;8.03;74.75
48216;BME280;34005;48.844;10.098;2023-03-26T09:34:50;95512.09;;;8.01;74.68
48216;BME280;34005;48.844;10.098;2023-03-26T09:37:24;95509.09;;;8.04;73.94
48216;BME280;34005;48.844;10.098;2023-03-26T09:40:03;95505.88;;;8.02;73.92
48216;BME280;34005;48.844;10.098;2023-03-26T09:42:42;95510.72;;;8.05;74.46
48216;BME280;34005;48.844;10.098;2023-03-26T09:45:30;95495.75;;;8.07;74.48
48216;BME280;34005;48.844;10.098;2023-03-26T09:51:10;95492.75;;;8.10;74.52
48216;BME280;34005;48.844;10.098;2023-03-26T09:54:11;95501.16;;;8.12;74.26
48216;BME280;34005;48.844;10.098;2023-03-26T09:56:51;95502.38;;;8.16;74.92
48216;BME280;34005;48.844;10.098;2023-03-26T09:59:44;95505.19;;;8.21;74.74
48216;BME280;34005;48.844;10.098;2023-03-26T10:02:39;95504.81;;;8.24;75.53
48216;BME280;34005;48.844;10.098;2023-03-26T10:05:25;95490.63;;;8.27;75.36
48216;BME280;34005;48.844;10.098;2023-03-26T10:08:17;95472.47;;;8.34;75.07
48216;BME280;34005;48.844;10.098;2023-03-26T10:10:54;95472.31;;;8.42;74.93
48216;BME280;34005;48.844;10.098;2023-03-26T10:13:29;95478.72;;;8.46;74.61
48216;BME280;34005;48.844;10.098;2023-03-26T10:16:06;95474.94;;;8.49;74.75
48216;BME280;34005;48.844;10.098;2023-03-26T10:18:47;95476.94;;;8.53;74.99
48216;BME280;34005;48.844;10.098;2023-03-26T10:21:28;95474.56;;;8.58;75.64
48216;BME280;34005;48.844;10.098;2023-03-26T10:24:19;95476.56;;;8.63;75.13
48216;BME280;34005;48.844;10.098;2023-03-26T10:26:58;95474.38;;;8.66;74.45
48216;BME280;34005;48.844;10.098;2023-03-26T10:30:06;95462.59;;;8.77;75.83
48216;BME280;34005;48.844;10.098;2023-03-26T10:32:52;95462.19;;;8.87;75.98
48216;BME280;34005;48.844;10.098;2023-03-26T10:35:35;95472.41;;;9.02;74.26
48216;BME280;34005;48.844;10.098;2023-03-26T10:38:15;95469.63;;;9.17;75.05
48216;BME280;34005;48.844;10.098;2023-03-26T10:40:53;95472.22;;;9.30;73.32
48216;BME280;34005;48.844;10.098;2023-03-26T10:44:08;95461.78;;;9.43;73.23
48216;BME280;34005;48.844;10.098;2023-03-26T10:47:04;95468.97;;;9.55;72.77
48216;BME280;34005;48.844;10.098;2023-03-26T10:49:53;95459.75;;;9.65;73.42
48216;BME280;34005;48.844;10.098;2023-03-26T10:52:51;95469.34;;;9.78;72.84
48216;BME280;34005;48.844;10.098;2023-03-26T10:55:28;95468.53;;;9.84;69.45
48216;BME280;34005;48.844;10.098;2023-03-26T10:58:00;95467.72;;;9.90;70.55
48216;BME280;34005;48.844;10.098;2023-03-26T11:00:36;95462.69;;;9.96;70.49
48216;BME280;34005;48.844;10.098;2023-03-26T11:03:28;95463.88;;;10.00;68.80
48216;BME280;34005;48.844;10.098;2023-03-26T11:06:07;95469.25;;;10.05;69.96
48216;BME280;34005;48.844;10.098;2023-03-26T11:08:45;95470.03;;;10.12;69.88
48216;BME280;34005;48.844;10.098;2023-03-26T11:11:28;95450.72;;;10.26;68.11
48216;BME280;34005;48.844;10.098;2023-03-26T11:14:01;95449.28;;;10.44;69.01
48216;BME280;34005;48.844;10.098;2023-03-26T11:19:18;95450.94;;;10.95;67.31
48216;BME280;34005;48.844;10.098;2023-03-26T11:21:52;95445.38;;;11.17;66.77
48216;BME280;34005;48.844;10.098;2023-03-26T11:27:29;95452.56;;;11.65;66.57
48216;BME280;34005;48.844;10.098;2023-03-26T11:30:10;95447.13;;;11.85;65.40
48216;BME280;34005;48.844;10.098;2023-03-26T11:32:44;95450.06;;;11.95;65.42
48216;BME280;34005;48.844;10.098;2023-03-26T11:35:17;95435.78;;;11.98;62.32
48216;BME280;34005;48.844;10.098;2023-03-26T11:38:12;95434.31;;;12.02;63.94
48216;BME280;34005;48.844;10.098;2023-03-26T11:40:43;95434.09;;;12.03;63.38
48216;BME280;34005;48.844;10.098;2023-03-26T11:43:22;95443.31;;;12.06;63.50
48216;BME280;34005;48.844;10.098;2023-03-26T11:45:51;95429.81;;;12.09;62.04
48216;BME280;34005;48.844;10.098;2023-03-26T11:48:22;95421.44;;;12.19;61.35
48216;BME280;34005;48.844;10.098;2023-03-26T11:50:56;95424.78;;;12.26;61.25
48216;BME280;34005;48.844;10.098;2023-03-26T11:53:28;95428.19;;;12.26;61.42
48216;BME280;34005;48.844;10.098;2023-03-26T11:56:02;95411.66;;;12.14;60.04
48216;BME280;34005;48.844;10.098;2023-03-26T11:58:37;95412.41;;;12.03;61.50
48216;BME280;34005;48.844;10.098;2023-03-26T12:01:12;95413.28;;;11.97;60.25
48216;BME280;34005;48.844;10.098;2023-03-26T12:03:41;95402.25;;;11.94;62.90
48216;BME280;34005;48.844;10.098;2023-03-26T12:06:21;95406.88;;;11.92;61.20
48216;BME280;34005;48.844;10.098;2023-03-26T12:08:52;95405.13;;;11.86;62.08
48216;BME280;34005;48.844;10.098;2023-03-26T12:11:23;95408.97;;;11.84;61.90
48216;BME280;34005;48.844;10.098;2023-03-26T12:13:58;95403.53;;;11.85;61.30
48216;BME280;34005;48.844;10.098;2023-03-26T12:16:27;95408.47;;;11.93;63.01
48216;BME280;34005;48.844;10.098;2023-03-26T12:19:00;95391.50;;;12.03;61.30
48216;BME280;34005;48.844;10.098;2023-03-26T12:21:29;95387.09;;;12.15;61.52
48216;BME280;34005;48.844;10.098;2023-03-26T12:31:10;95378.63;;;12.73;61.07
48216;BME280;34005;48.844;10.098;2023-03-26T12:34:04;95384.25;;;12.89;59.78
48216;BME280;34005;48.844;10.098;2023-03-26T12:36:36;95371.84;;;12.96;56.53
48216;BME280;34005;48.844;10.098;2023-03-26T12:39:28;95385.63;;;13.03;57.23
48216;BME280;34005;48.844;10.098;2023-03-26T12:42:35;95372.66;;;13.08;57.43
48216;BME280;34005;48.844;10.098;2023-03-26T12:49:30;95370.50;;;13.29;56.33
48216;BME280;34005;48.844;10.098;2023-03-26T12:52:08;95364.25;;;13.30;53.60
48216;BME280;34005;48.844;10.098;2023-03-26T12:54:50;95357.84;;;13.26;56.64
48216;BME280;34005;48.844;10.098;2023-03-26T12:57:20;95360.25;;;13.27;56.51
48216;BME280;34005;48.844;10.098;2023-03-26T12:59:59;95354.78;;;13.29;54.50
48216;BME280;34005;48.844;10.098;2023-03-26T13:05:56;95362.44;;;13.30;56.61
48216;BME280;34005;48.844;10.098;2023-03-26T13:08:54;95361.16;;;13.33;56.19
48216;BME280;34005;48.844;10.098;2023-03-26T13:11:36;95362.66;;;13.29;55.74
48216;BME280;34005;48.844;10.098;2023-03-26T13:14:20;95373.44;;;13.20;54.28
48216;BME280;34005;48.844;10.098;2023-03-26T13:16:54;95397.78;;;12.97;54.76
48216;BME280;34005;48.844;10.098;2023-03-26T13:19:27;95415.59;;;12.65;58.29
48216;BME280;34005;48.844;10.098;2023-03-26T13:22:44;95421.41;;;12.37;56.64
48216;BME280;34005;48.844;10.098;2023-03-26T13:30:19;95409.78;;;11.66;60.71
48216;BME280;34005;48.844;10.098;2023-03-26T13:33:01;95394.75;;;11.61;60.94
48216;BME280;34005;48.844;10.098;2023-03-26T13:35:39;95388.50;;;11.62;61.95
48216;BME280;34005;48.844;10.098;2023-03-26T13:38:19;95378.19;;;11.67;61.86
48216;BME280;34005;48.844;10.098;2023-03-26T13:40:57;95370.84;;;11.76;63.40
48216;BME280;34005;48.844;10.098;2023-03-26T13:43:36;95376.81;;;11.83;63.51
48216;BME280;34005;48.844;10.098;2023-03-26T13:46:21;95360.13;;;11.84;60.52
48216;BME280;34005;48.844;10.098;2023-03-26T13:48:52;95352.28;;;11.84;60.68
48216;BME280;34005;48.844;10.098;2023-03-26T13:51:23;95341.97;;;11.89;61.43
48216;BME280;34005;48.844;10.098;2023-03-26T13:53:59;95340.53;;;11.93;59.07
48216;BME280;34005;48.844;10.098;2023-03-26T13:56:33;95333.25;;;11.95;60.51
48216;BME280;34005;48.844;10.098;2023-03-26T13:59:07;95329.66;;;11.97;60.25
48216;BME280;34005;48.844;10.098;2023-03-26T14:01:42;95324.44;;;11.97;59.98
48216;BME280;34005;48.844;10.098;2023-03-26T14:04:20;95326.47;;;11.94;59.71
48216;BME280;34005;48.844;10.098;2023-03-26T14:06:51;95316.59;;;11.97;61.08
48216;BME280;34005;48.844;10.098;2023-03-26T14:09:28;95313.88;;;12.03;61.16
48216;BME280;34005;48.844;10.098;2023-03-26T14:12:13;95314.56;;;12.10;63.28
48216;BME280;34005;48.844;10.098;2023-03-26T14:14:49;95305.50;;;12.13;60.29
48216;BME280;34005;48.844;10.098;2023-03-26T14:17:22;95304.47;;;12.14;60.98
48216;BME280;34005;48.844;10.098;2023-03-26T14:20:25;95304.16;;;12.22;59.87
48216;BME280;34005;48.844;10.098;2023-03-26T14:23:21;95303.72;;;12.25;59.88